createdAt,value
2023-04-28T00:01:01.051Z,98621.31
2023-04-28T00:04:03.558Z,98620.20
2023-04-28T00:07:05.516Z,98622.92
2023-04-28T00:10:08.010Z,98620.42
2023-04-28T00:13:10.435Z,98616.75
2023-04-28T00:16:12.224Z,98616.57
2023-04-28T00:19:13.925Z,98613.11
2023-04-28T00:22:15.620Z,98609.98
2023-04-28T00:25:17.359Z,98613.59
2023-04-28T00:28:32.902Z,98612.98
2023-04-28T00:31:35.836Z,98613.61
2023-04-28T00:34:37.580Z,98612.12
2023-04-28T00:37:39.412Z,98612.20
2023-04-28T00:40:41.250Z,98612.64
2023-04-28T00:43:49.974Z,98611.59
2023-04-28T00:46:53.194Z,98612.81
2023-04-28T00:49:55.254Z,98607.20
2023-04-28T00:52:57.156Z,98607.74
2023-04-28T00:55:59.183Z,98609.91
2023-04-28T00:59:00.959Z,98613.66
2023-04-28T01:02:03.191Z,98614.20
2023-04-28T01:05:04.964Z,98614.67
2023-04-28T01:08:07.503Z,98614.02
2023-04-28T01:11:13.557Z,98613.48
2023-04-28T01:14:39.301Z,98613.87
2023-04-28T01:17:41.572Z,98614.68
2023-04-28T01:20:44.147Z,98613.81
2023-04-28T01:23:46.236Z,98610.42
2023-04-28T01:26:47.980Z,98606.96
2023-04-28T01:29:50.220Z,98604.13
2023-04-28T01:32:51.961Z,98601.84
2023-04-28T01:35:58.084Z,98597.42
2023-04-28T01:39:00.166Z,98598.98
2023-04-28T01:42:01.816Z,98599.34
2023-04-28T01:45:04.722Z,98602.34
2023-04-28T01:48:06.609Z,98605.52
2023-04-28T01:51:08.404Z,98604.86
2023-04-28T01:54:12.513Z,98610.93
2023-04-28T01:57:15.521Z,98610.77
2023-04-28T02:00:19.792Z,98606.75
2023-04-28T02:03:25.680Z,98603.92
2023-04-28T02:06:27.525Z,98603.20
2023-04-28T02:09:29.250Z,98602.55
2023-04-28T02:12:33.363Z,98598.34
2023-04-28T02:15:39.762Z,98598.56
2023-04-28T02:18:41.431Z,98602.16
2023-04-28T02:21:43.220Z,98603.40
2023-04-28T02:24:45.064Z,98599.05
2023-04-28T02:27:47.248Z,98597.59
2023-04-28T02:30:48.884Z,98595.77
2023-04-28T02:33:52.331Z,98593.08
2023-04-28T02:36:54.118Z,98587.40
2023-04-28T02:39:56.311Z,98587.02
2023-04-28T02:42:57.997Z,98586.30
2023-04-28T02:45:59.881Z,98584.45
2023-04-28T02:49:01.523Z,98583.09
2023-04-28T02:52:03.851Z,98586.86
2023-04-28T02:55:06.095Z,98586.29
2023-04-28T02:58:07.785Z,98582.19
2023-04-28T03:01:09.587Z,98581.92
2023-04-28T03:04:11.542Z,98580.66
2023-04-28T03:07:13.423Z,98580.77
2023-04-28T03:10:15.224Z,98578.38
2023-04-28T03:13:16.964Z,98577.34
2023-04-28T03:16:18.769Z,98578.68
2023-04-28T03:19:20.644Z,98578.30
2023-04-28T03:22:22.536Z,98582.84
2023-04-28T03:25:24.353Z,98581.44
2023-04-28T03:28:26.364Z,98578.24
2023-04-28T03:31:28.212Z,98573.48
2023-04-28T03:34:29.939Z,98572.16
2023-04-28T03:37:31.671Z,98574.94
2023-04-28T03:40:33.621Z,98568.42
2023-04-28T03:43:56.181Z,98575.55
2023-04-28T03:47:04.103Z,98571.38
2023-04-28T03:50:06.553Z,98570.96
2023-04-28T03:53:08.196Z,98570.77
2023-04-28T03:56:10.375Z,98567.38
2023-04-28T03:59:13.934Z,98567.91
2023-04-28T04:02:15.635Z,98576.44
2023-04-28T04:05:17.596Z,98579.77
2023-04-28T04:08:19.503Z,98579.23
2023-04-28T04:11:21.273Z,98584.48
2023-04-28T04:14:23.071Z,98588.64
2023-04-28T04:17:25.121Z,98591.98
2023-04-28T04:20:26.952Z,98593.55
2023-04-28T04:23:28.761Z,98596.00
2023-04-28T04:26:30.645Z,98599.14
2023-04-28T04:29:32.885Z,98606.79
2023-04-28T04:32:36.021Z,98607.69
2023-04-28T04:35:38.090Z,98602.47
2023-04-28T04:38:40.208Z,98600.77
2023-04-28T04:41:48.358Z,98599.25
2023-04-28T04:45:09.700Z,98598.93
2023-04-28T04:48:11.871Z,98604.48
2023-04-28T04:51:13.678Z,98602.15
2023-04-28T04:54:15.641Z,98599.19
2023-04-28T04:57:17.742Z,98602.10
2023-04-28T05:00:54.657Z,98601.98
2023-04-28T05:03:56.591Z,98603.42
2023-04-28T05:06:58.406Z,98600.09
2023-04-28T05:10:00.731Z,98601.86
2023-04-28T05:13:02.540Z,98595.92
2023-04-28T05:16:04.774Z,98595.91
2023-04-28T05:19:09.350Z,98592.95
2023-04-28T05:22:11.584Z,98593.09
2023-04-28T05:25:13.335Z,98590.18
2023-04-28T05:28:15.089Z,98589.09
2023-04-28T05:31:17.287Z,98589.89
2023-04-28T05:34:19.522Z,98588.48
2023-04-28T05:37:21.396Z,98589.45
2023-04-28T05:40:23.569Z,98590.60
2023-04-28T05:43:25.410Z,98588.77
2023-04-28T05:46:30.985Z,98591.44
2023-04-28T05:49:37.060Z,98591.85
2023-04-28T05:52:39.470Z,98590.84
2023-04-28T05:55:41.348Z,98592.55
2023-04-28T05:58:44.432Z,98593.23
2023-04-28T06:01:52.536Z,98592.59
2023-04-28T06:04:55.203Z,98593.83
2023-04-28T06:07:57.119Z,98593.70
2023-04-28T06:10:58.775Z,98592.17
2023-04-28T06:14:00.583Z,98592.35
2023-04-28T06:17:02.540Z,98591.61
2023-04-28T06:20:05.350Z,98592.88
2023-04-28T06:23:08.395Z,98593.91
2023-04-28T06:26:11.269Z,98597.42
2023-04-28T06:29:14.324Z,98589.71
2023-04-28T06:32:16.088Z,98586.20
2023-04-28T06:35:17.823Z,98582.88
2023-04-28T06:38:19.507Z,98580.98
2023-04-28T06:41:21.461Z,98590.51
2023-04-28T06:44:25.708Z,98586.86
2023-04-28T06:47:27.416Z,98583.23
2023-04-28T06:50:41.766Z,98587.67
2023-04-28T06:53:46.306Z,98583.20
2023-04-28T06:56:52.015Z,98582.61
2023-04-28T06:59:53.791Z,98578.42
2023-04-28T07:02:58.887Z,98577.38
2023-04-28T07:06:03.925Z,98573.42
2023-04-28T07:09:05.824Z,98572.77
2023-04-28T07:12:07.705Z,98565.45
2023-04-28T07:15:25.672Z,98566.84
2023-04-28T07:18:28.310Z,98562.14
2023-04-28T07:21:30.785Z,98557.68
2023-04-28T07:24:32.562Z,98558.63
2023-04-28T07:27:38.152Z,98558.69
2023-04-28T07:30:40.060Z,98559.39
2023-04-28T07:33:45.058Z,98554.23
2023-04-28T07:36:47.255Z,98550.27
2023-04-28T07:39:49.164Z,98551.17
2023-04-28T07:42:51.421Z,98547.42
2023-04-28T07:45:53.234Z,98541.84
2023-04-28T07:48:55.136Z,98540.41
2023-04-28T07:52:12.995Z,98540.07
2023-04-28T07:55:14.873Z,98537.17
2023-04-28T07:58:16.677Z,98536.81
2023-04-28T08:01:18.535Z,98536.17
2023-04-28T08:07:22.209Z,98534.76
2023-04-28T08:10:25.971Z,98534.73
2023-04-28T08:13:28.344Z,98534.21
2023-04-28T08:16:30.993Z,98530.56
2023-04-28T08:19:32.968Z,98531.23
2023-04-28T08:22:35.072Z,98525.52
2023-04-28T08:25:36.958Z,98521.90
2023-04-28T08:28:39.526Z,98523.33
2023-04-28T08:31:41.505Z,98512.06
2023-04-28T08:34:43.369Z,98508.14
2023-04-28T08:37:45.778Z,98502.31
2023-04-28T08:40:47.371Z,98501.92
2023-04-28T08:43:49.672Z,98502.10
2023-04-28T08:46:53.882Z,98495.84
2023-04-28T08:50:01.893Z,98497.55
2023-04-28T08:56:07.249Z,98495.31
2023-04-28T08:59:09.130Z,98495.45
2023-04-28T09:02:11.405Z,98492.52
2023-04-28T09:05:14.036Z,98488.63
2023-04-28T09:08:16.062Z,98488.53
2023-04-28T09:11:18.773Z,98480.77
2023-04-28T09:14:22.121Z,98476.85
2023-04-28T09:17:23.998Z,98474.71
2023-04-28T09:20:27.710Z,98474.42
2023-04-28T09:23:30.201Z,98472.35
2023-04-28T09:26:50.065Z,98473.70
2023-04-28T09:29:53.510Z,98472.63
2023-04-28T09:33:05.008Z,98465.90
2023-04-28T09:36:07.329Z,98466.41
2023-04-28T09:39:09.106Z,98466.17
2023-04-28T09:42:29.972Z,98460.21
2023-04-28T09:45:41.934Z,98454.27
2023-04-28T09:48:44.404Z,98454.31
2023-04-28T09:51:46.270Z,98447.95
2023-04-28T09:54:53.852Z,98443.23
2023-04-28T09:57:59.596Z,98440.04
2023-04-28T10:01:02.669Z,98430.66
2023-04-28T10:04:06.855Z,98427.30
2023-04-28T10:07:09.904Z,98424.88
2023-04-28T10:10:13.949Z,98428.30
2023-04-28T10:13:17.399Z,98423.87
2023-04-28T10:16:19.685Z,98414.90
2023-04-28T10:19:21.473Z,98412.67
2023-04-28T10:23:24.594Z,98409.64
2023-04-28T10:26:35.776Z,98410.54
2023-04-28T10:29:37.881Z,98411.65
2023-04-28T10:32:40.992Z,98404.90
2023-04-28T10:35:47.341Z,98395.40
2023-04-28T10:39:09.231Z,98397.30
2023-04-28T10:42:47.832Z,98394.34
2023-04-28T10:45:55.649Z,98386.98
2023-04-28T10:48:58.784Z,98377.13
2023-04-28T10:52:00.553Z,98372.10
2023-04-28T10:55:35.837Z,98371.01
2023-04-28T10:58:42.034Z,98361.79
2023-04-28T11:01:45.199Z,98362.58
2023-04-28T11:05:12.081Z,98356.33
2023-04-28T11:08:31.103Z,98354.86
2023-04-28T11:11:35.569Z,98339.92
2023-04-28T11:14:39.913Z,98333.58
2023-04-28T11:17:41.966Z,98331.75
2023-04-28T11:20:52.724Z,98326.02
2023-04-28T11:23:54.864Z,98328.16
2023-04-28T11:26:58.063Z,98324.11
2023-04-28T11:30:04.279Z,98320.78
2023-04-28T11:33:07.322Z,98319.05
2023-04-28T11:36:21.991Z,98317.14
2023-04-28T11:39:31.739Z,98311.17
2023-04-28T11:42:33.496Z,98314.02
2023-04-28T11:45:38.394Z,98307.30
2023-04-28T11:48:41.293Z,98310.73
2023-04-28T11:51:46.246Z,98312.27
2023-04-28T11:54:57.247Z,98307.14
2023-04-28T11:58:23.416Z,98306.23
2023-04-28T12:01:25.203Z,98305.72
2023-04-28T12:04:37.694Z,98299.55
2023-04-28T12:07:43.777Z,98293.84
2023-04-28T12:11:14.762Z,98294.82
2023-04-28T12:14:16.968Z,98292.00
2023-04-28T12:17:29.635Z,98286.64
2023-04-28T12:20:38.674Z,98289.55
2023-04-28T12:23:42.573Z,98283.48
2023-04-28T12:26:44.626Z,98281.86
2023-04-28T12:29:47.414Z,98276.69
2023-04-28T12:32:49.242Z,98272.05
2023-04-28T12:35:51.792Z,98260.79
2023-04-28T12:38:53.659Z,98262.20
2023-04-28T12:41:59.335Z,98257.49
2023-04-28T12:45:01.350Z,98252.49
2023-04-28T12:48:03.216Z,98250.00
2023-04-28T12:51:05.535Z,98239.51
2023-04-28T12:54:07.529Z,98242.99
2023-04-28T12:57:09.355Z,98236.92
2023-04-28T13:00:16.048Z,98234.60
2023-04-28T13:03:19.265Z,98235.20
2023-04-28T13:06:21.648Z,98235.73
2023-04-28T13:09:25.056Z,98227.11
2023-04-28T13:12:27.019Z,98225.80
2023-04-28T13:15:29.655Z,98225.50
2023-04-28T13:18:31.651Z,98221.05
2023-04-28T13:21:33.371Z,98216.08
2023-04-28T13:24:35.527Z,98205.40
2023-04-28T13:27:37.770Z,98208.73
2023-04-28T13:30:40.055Z,98213.42
2023-04-28T13:33:41.916Z,98202.21
2023-04-28T13:36:44.545Z,98194.66
2023-04-28T13:39:46.346Z,98185.99
2023-04-28T13:42:48.079Z,98185.14
2023-04-28T13:45:51.984Z,98185.80
2023-04-28T13:48:54.345Z,98183.21
2023-04-28T13:51:56.198Z,98176.23
2023-04-28T13:54:58.300Z,98169.63
2023-04-28T13:58:04.039Z,98162.25
2023-04-28T14:01:05.868Z,98156.90
2023-04-28T14:04:07.930Z,98163.06
2023-04-28T14:07:10.045Z,98165.41
2023-04-28T14:10:11.971Z,98161.29
2023-04-28T14:13:13.957Z,98154.92
2023-04-28T14:16:38.726Z,98156.14
2023-04-28T14:19:40.848Z,98152.50
2023-04-28T14:22:42.793Z,98144.29
2023-04-28T14:25:57.367Z,98146.84
2023-04-28T14:28:59.994Z,98144.71
2023-04-28T14:32:01.769Z,98144.17
2023-04-28T14:35:05.567Z,98139.77
2023-04-28T14:38:07.428Z,98142.33
2023-04-28T14:41:09.330Z,98141.23
2023-04-28T14:44:11.073Z,98144.77
2023-04-28T14:47:13.006Z,98141.11
2023-04-28T14:50:14.676Z,98143.98
2023-04-28T14:53:16.369Z,98135.92
2023-04-28T14:56:27.832Z,98138.31
2023-04-28T14:59:29.579Z,98142.86
2023-04-28T15:02:31.486Z,98143.03
2023-04-28T15:05:33.349Z,98145.38
2023-04-28T15:08:34.999Z,98135.76
2023-04-28T15:11:36.684Z,98138.21
2023-04-28T15:14:38.372Z,98137.30
2023-04-28T15:17:40.130Z,98127.96
2023-04-28T15:20:42.000Z,98129.94
2023-04-28T15:23:43.716Z,98127.27
2023-04-28T15:26:45.616Z,98129.75
2023-04-28T15:29:47.395Z,98125.27
2023-04-28T15:32:49.511Z,98118.23
2023-04-28T15:35:51.306Z,98115.45
2023-04-28T15:38:53.236Z,98112.92
2023-04-28T15:41:55.526Z,98108.61
2023-04-28T15:44:57.275Z,98109.16
2023-04-28T15:47:59.440Z,98102.81
2023-04-28T15:51:01.474Z,98097.66
2023-04-28T15:54:03.703Z,98097.77
2023-04-28T15:57:05.510Z,98093.33
2023-04-28T16:00:08.380Z,98084.36
2023-04-28T16:03:11.232Z,98086.67
2023-04-28T16:06:14.270Z,98088.09
2023-04-28T16:09:16.364Z,98083.03
2023-04-28T16:12:18.768Z,98077.69
2023-04-28T16:15:20.920Z,98075.04
2023-04-28T16:18:23.661Z,98079.24
2023-04-28T16:21:26.149Z,98077.39
2023-04-28T16:24:29.868Z,98078.67
2023-04-28T16:27:32.882Z,98074.63
2023-04-28T16:30:35.308Z,98074.44
2023-04-28T16:33:37.193Z,98070.34
2023-04-28T16:36:39.634Z,98068.89
2023-04-28T16:39:41.398Z,98067.42
2023-04-28T16:42:44.705Z,98061.94
2023-04-28T16:45:47.604Z,98054.02
2023-04-28T16:48:49.550Z,98051.41
2023-04-28T16:51:59.265Z,98049.52
2023-04-28T16:55:08.270Z,98047.28
2023-04-28T16:58:09.963Z,98045.02
2023-04-28T17:01:11.684Z,98046.30
2023-04-28T17:04:14.155Z,98049.88
2023-04-28T17:07:15.991Z,98046.59
2023-04-28T17:10:17.721Z,98044.61
2023-04-28T17:13:19.460Z,98047.04
2023-04-28T17:16:21.426Z,98036.75
2023-04-28T17:19:23.344Z,98038.96
2023-04-28T17:22:25.041Z,98040.56
2023-04-28T17:25:26.738Z,98042.13
2023-04-28T17:28:28.477Z,98042.42
2023-04-28T17:31:30.534Z,98043.02
2023-04-28T17:34:32.367Z,98045.33
2023-04-28T17:37:35.005Z,98048.11
2023-04-28T17:40:37.377Z,98052.16
2023-04-28T17:43:39.189Z,98056.39
2023-04-28T17:46:41.343Z,98061.62
2023-04-28T17:49:43.032Z,98064.98
2023-04-28T17:52:44.772Z,98063.67
2023-04-28T17:55:46.531Z,98061.91
2023-04-28T17:58:48.237Z,98063.08
2023-04-28T18:01:50.109Z,98061.81
2023-04-28T18:04:52.151Z,98064.87
2023-04-28T18:07:54.702Z,98068.76
2023-04-28T18:10:56.461Z,98067.27
2023-04-28T18:13:58.260Z,98068.40
2023-04-28T18:17:00.197Z,98071.10
2023-04-28T18:20:03.669Z,98073.27
2023-04-28T18:23:06.226Z,98071.15
2023-04-28T18:26:08.140Z,98075.92
2023-04-28T18:29:09.774Z,98076.73
2023-04-28T18:32:14.337Z,98082.25
2023-04-28T18:35:17.489Z,98082.33
2023-04-28T18:38:19.757Z,98079.11
2023-04-28T18:41:21.721Z,98083.52
2023-04-28T18:44:23.462Z,98081.98
2023-04-28T18:47:25.158Z,98085.90
2023-04-28T18:50:28.307Z,98088.83
2023-04-28T18:53:30.089Z,98086.92
2023-04-28T18:56:31.872Z,98087.89
2023-04-28T18:59:33.535Z,98086.55
2023-04-28T19:02:35.706Z,98087.66
2023-04-28T19:05:38.163Z,98089.73
2023-04-28T19:08:40.870Z,98089.56
2023-04-28T19:11:42.432Z,98088.66
2023-04-28T19:14:44.320Z,98091.02
2023-04-28T19:17:48.536Z,98087.34
2023-04-28T19:20:58.566Z,98092.95
2023-04-28T19:24:45.799Z,98091.10
2023-04-28T19:27:47.822Z,98088.91
2023-04-28T19:30:49.996Z,98084.86
2023-04-28T19:33:51.775Z,98083.14
2023-04-28T19:36:55.209Z,98078.06
2023-04-28T19:39:57.167Z,98076.80
2023-04-28T19:42:59.662Z,98077.41
2023-04-28T19:46:05.023Z,98072.74
2023-04-28T19:49:12.142Z,98074.13
2023-04-28T19:52:13.976Z,98072.81
2023-04-28T19:55:19.307Z,98071.45
2023-04-28T19:58:21.797Z,98075.38
2023-04-28T20:01:23.671Z,98067.36
2023-04-28T20:04:28.334Z,98068.79
2023-04-28T20:07:30.460Z,98067.15
2023-04-28T20:10:32.479Z,98067.27
2023-04-28T20:13:34.335Z,98066.14
2023-04-28T20:16:36.203Z,98063.30
2023-04-28T20:20:28.677Z,98063.19
2023-04-28T20:27:29.835Z,98058.38
2023-04-28T20:33:48.571Z,98058.66
2023-04-28T20:36:53.231Z,98058.74
2023-04-28T20:39:55.725Z,98067.40
2023-04-28T20:42:58.254Z,98064.90
2023-04-28T20:46:00.090Z,98063.82
2023-04-28T20:49:02.443Z,98066.00
2023-04-28T20:52:04.682Z,98066.36
2023-04-28T20:55:08.953Z,98063.36
2023-04-28T20:58:10.677Z,98062.80
2023-04-28T21:01:13.053Z,98061.17
2023-04-28T21:04:15.075Z,98057.52
2023-04-28T21:07:17.113Z,98054.90
2023-04-28T21:10:18.869Z,98052.73
2023-04-28T21:13:20.644Z,98053.02
2023-04-28T21:16:22.505Z,98055.95
2023-04-28T21:19:25.190Z,98055.14
2023-04-28T21:22:29.295Z,98050.99
2023-04-28T21:25:31.017Z,98051.20
2023-04-28T21:28:33.965Z,98052.89
2023-04-28T21:31:35.842Z,98049.30
2023-04-28T21:34:37.563Z,98047.98
2023-04-28T21:37:39.500Z,98048.66
2023-04-28T21:40:41.286Z,98045.61
2023-04-28T21:43:42.979Z,98047.23
2023-04-28T21:46:44.668Z,98048.58
2023-04-28T21:49:46.765Z,98045.93
2023-04-28T21:52:48.458Z,98046.33
2023-04-28T21:55:50.276Z,98041.45
2023-04-28T21:58:51.921Z,98041.52
2023-04-28T22:01:54.637Z,98039.47
2023-04-28T22:04:56.345Z,98041.05
2023-04-28T22:07:58.036Z,98036.74
2023-04-28T22:11:00.362Z,98040.84
2023-04-28T22:14:02.006Z,98039.03
2023-04-28T22:17:03.717Z,98040.58
2023-04-28T22:20:06.249Z,98037.84
2023-04-28T22:23:07.975Z,98034.92
2023-04-28T22:26:09.775Z,98031.94
2023-04-28T22:29:11.739Z,98028.85
2023-04-28T22:32:13.460Z,98031.05
2023-04-28T22:35:15.926Z,98032.63
2023-04-28T22:38:17.696Z,98029.70
2023-04-28T22:41:19.395Z,98024.81
2023-04-28T22:44:21.258Z,98022.19
2023-04-28T22:47:23.030Z,98018.95
2023-04-28T22:50:24.743Z,98022.26
2023-04-28T22:53:27.028Z,98021.80
2023-04-28T22:56:28.730Z,98014.88
2023-04-28T22:59:32.455Z,98014.19
2023-04-28T23:02:34.277Z,98011.92
2023-04-28T23:05:37.330Z,98014.14
2023-04-28T23:08:39.059Z,98009.29
2023-04-28T23:11:40.907Z,98006.30
2023-04-28T23:14:42.617Z,98002.63
2023-04-28T23:17:44.307Z,98000.41
2023-04-28T23:20:49.422Z,97995.30
2023-04-28T23:23:51.091Z,97993.33
2023-04-28T23:26:52.826Z,97992.92
2023-04-28T23:29:54.548Z,97992.84
2023-04-28T23:32:56.336Z,97992.20
2023-04-28T23:35:58.213Z,97988.88
2023-04-28T23:39:00.972Z,97983.67
2023-04-28T23:42:02.846Z,97983.73
2023-04-28T23:45:06.147Z,97977.88
2023-04-28T23:48:07.851Z,97976.19
2023-04-28T23:51:09.600Z,97968.94
2023-04-28T23:54:11.398Z,97970.17
2023-04-28T23:57:13.140Z,97966.70
